sensor_id;sensor_type;location;lat;lon;timestamp;P1;durP1;ratioP1;P2;durP2;ratioP2
19183;SDS011;9724;51.194;6.856;2023-05-10T00:00:01;12.53;;;8.77;;
19183;SDS011;9724;51.194;6.856;2023-05-10T00:02:27;13.10;;;9.30;;
19183;SDS011;9724;51.194;6.856;2023-05-10T00:04:54;13.00;;;9.37;;
19183;SDS011;9724;51.194;6.856;2023-05-10T00:07:20;12.73;;;8.90;;
19183;SDS011;9724;51.194;6.856;2023-05-10T00:09:47;13.57;;;9.17;;
19183;SDS011;9724;51.194;6.856;2023-05-10T00:12:13;13.97;;;10.03;;
19183;SDS011;9724;51.194;6.856;2023-05-10T00:14:39;13.50;;;9.87;;
19183;SDS011;9724;51.194;6.856;2023-05-10T00:17:06;14.20;;;9.47;;
19183;SDS011;9724;51.194;6.856;2023-05-10T00:19:32;14.83;;;10.30;;
19183;SDS011;9724;51.194;6.856;2023-05-10T00:21:58;13.47;;;9.80;;
19183;SDS011;9724;51.194;6.856;2023-05-10T00:24:25;15.67;;;10.27;;
19183;SDS011;9724;51.194;6.856;2023-05-10T00:26:52;15.00;;;10.23;;
19183;SDS011;9724;51.194;6.856;2023-05-10T00:29:18;15.77;;;10.50;;
19183;SDS011;9724;51.194;6.856;2023-05-10T00:31:45;16.37;;;10.93;;
19183;SDS011;9724;51.194;6.856;2023-05-10T00:34:11;17.13;;;10.90;;
19183;SDS011;9724;51.194;6.856;2023-05-10T00:36:37;16.13;;;10.30;;
19183;SDS011;9724;51.194;6.856;2023-05-10T00:39:04;14.23;;;10.63;;
19183;SDS011;9724;51.194;6.856;2023-05-10T00:41:30;17.30;;;11.27;;
19183;SDS011;9724;51.194;6.856;2023-05-10T00:43:58;16.43;;;10.93;;
19183;SDS011;9724;51.194;6.856;2023-05-10T00:46:26;17.10;;;10.70;;
19183;SDS011;9724;51.194;6.856;2023-05-10T00:48:53;17.93;;;11.13;;
19183;SDS011;9724;51.194;6.856;2023-05-10T00:51:19;16.70;;;11.10;;
19183;SDS011;9724;51.194;6.856;2023-05-10T00:53:46;18.70;;;11.13;;
19183;SDS011;9724;51.194;6.856;2023-05-10T00:56:12;16.60;;;11.00;;
19183;SDS011;9724;51.194;6.856;2023-05-10T00:58:38;16.33;;;11.20;;
19183;SDS011;9724;51.194;6.856;2023-05-10T01:01:05;17.50;;;11.03;;
19183;SDS011;9724;51.194;6.856;2023-05-10T01:03:32;15.60;;;11.17;;
19183;SDS011;9724;51.194;6.856;2023-05-10T01:05:58;21.23;;;10.70;;
19183;SDS011;9724;51.194;6.856;2023-05-10T01:08:24;17.13;;;10.97;;
19183;SDS011;9724;51.194;6.856;2023-05-10T01:10:52;18.43;;;11.07;;
19183;SDS011;9724;51.194;6.856;2023-05-10T01:13:23;15.97;;;10.70;;
19183;SDS011;9724;51.194;6.856;2023-05-10T01:15:55;12.40;;;8.53;;
19183;SDS011;9724;51.194;6.856;2023-05-10T01:18:22;9.00;;;7.30;;
19183;SDS011;9724;51.194;6.856;2023-05-10T01:20:52;9.00;;;7.13;;
19183;SDS011;9724;51.194;6.856;2023-05-10T01:23:31;9.93;;;6.53;;
19183;SDS011;9724;51.194;6.856;2023-05-10T01:26:14;9.60;;;6.97;;
19183;SDS011;9724;51.194;6.856;2023-05-10T01:28:55;11.40;;;7.57;;
19183;SDS011;9724;51.194;6.856;2023-05-10T01:31:30;10.73;;;7.23;;
19183;SDS011;9724;51.194;6.856;2023-05-10T01:34:06;8.90;;;6.80;;
19183;SDS011;9724;51.194;6.856;2023-05-10T01:36:35;11.57;;;7.23;;
19183;SDS011;9724;51.194;6.856;2023-05-10T01:39:06;19.60;;;7.47;;
19183;SDS011;9724;51.194;6.856;2023-05-10T01:41:39;12.00;;;7.50;;
19183;SDS011;9724;51.194;6.856;2023-05-10T01:44:10;11.93;;;7.17;;
19183;SDS011;9724;51.194;6.856;2023-05-10T01:46:39;8.70;;;6.67;;
19183;SDS011;9724;51.194;6.856;2023-05-10T01:49:08;9.13;;;6.60;;
19183;SDS011;9724;51.194;6.856;2023-05-10T01:51:36;10.50;;;7.27;;
19183;SDS011;9724;51.194;6.856;2023-05-10T01:54:05;10.13;;;6.80;;
19183;SDS011;9724;51.194;6.856;2023-05-10T01:56:32;12.37;;;7.50;;
19183;SDS011;9724;51.194;6.856;2023-05-10T01:58:59;10.90;;;7.50;;
19183;SDS011;9724;51.194;6.856;2023-05-10T02:01:26;10.80;;;7.87;;
19183;SDS011;9724;51.194;6.856;2023-05-10T02:03:52;11.50;;;7.83;;
19183;SDS011;9724;51.194;6.856;2023-05-10T02:06:21;11.30;;;7.33;;
19183;SDS011;9724;51.194;6.856;2023-05-10T02:08:48;15.77;;;8.00;;
19183;SDS011;9724;51.194;6.856;2023-05-10T02:11:15;11.50;;;8.03;;
19183;SDS011;9724;51.194;6.856;2023-05-10T02:13:43;11.30;;;7.73;;
19183;SDS011;9724;51.194;6.856;2023-05-10T02:16:12;12.20;;;8.20;;
19183;SDS011;9724;51.194;6.856;2023-05-10T02:18:39;11.70;;;7.93;;
19183;SDS011;9724;51.194;6.856;2023-05-10T02:21:07;11.47;;;8.07;;
19183;SDS011;9724;51.194;6.856;2023-05-10T02:23:34;11.63;;;8.10;;
19183;SDS011;9724;51.194;6.856;2023-05-10T02:26:02;13.30;;;9.07;;
19183;SDS011;9724;51.194;6.856;2023-05-10T02:28:29;11.57;;;7.93;;
19183;SDS011;9724;51.194;6.856;2023-05-10T02:30:55;12.73;;;8.50;;
19183;SDS011;9724;51.194;6.856;2023-05-10T02:33:22;12.10;;;8.37;;
19183;SDS011;9724;51.194;6.856;2023-05-10T02:35:49;13.40;;;8.50;;
19183;SDS011;9724;51.194;6.856;2023-05-10T02:38:16;13.37;;;8.90;;
19183;SDS011;9724;51.194;6.856;2023-05-10T02:40:45;12.70;;;8.13;;
19183;SDS011;9724;51.194;6.856;2023-05-10T02:43:12;12.73;;;9.10;;
19183;SDS011;9724;51.194;6.856;2023-05-10T02:45:40;13.27;;;8.63;;
19183;SDS011;9724;51.194;6.856;2023-05-10T02:48:08;11.83;;;8.67;;
19183;SDS011;9724;51.194;6.856;2023-05-10T02:50:34;12.47;;;8.77;;
19183;SDS011;9724;51.194;6.856;2023-05-10T02:53:03;12.63;;;8.97;;
19183;SDS011;9724;51.194;6.856;2023-05-10T02:55:34;13.77;;;9.40;;
19183;SDS011;9724;51.194;6.856;2023-05-10T02:58:03;14.27;;;9.37;;
19183;SDS011;9724;51.194;6.856;2023-05-10T03:00:29;16.43;;;10.70;;
19183;SDS011;9724;51.194;6.856;2023-05-10T03:02:55;17.97;;;9.43;;
19183;SDS011;9724;51.194;6.856;2023-05-10T03:05:22;13.27;;;9.60;;
19183;SDS011;9724;51.194;6.856;2023-05-10T03:07:48;14.47;;;10.00;;
19183;SDS011;9724;51.194;6.856;2023-05-10T03:10:15;18.40;;;10.00;;
19183;SDS011;9724;51.194;6.856;2023-05-10T03:12:46;17.27;;;10.00;;
19183;SDS011;9724;51.194;6.856;2023-05-10T03:15:22;14.13;;;9.70;;
19183;SDS011;9724;51.194;6.856;2023-05-10T03:17:55;14.83;;;9.97;;
19183;SDS011;9724;51.194;6.856;2023-05-10T03:20:24;17.33;;;9.30;;
19183;SDS011;9724;51.194;6.856;2023-05-10T03:22:53;12.83;;;9.10;;
19183;SDS011;9724;51.194;6.856;2023-05-10T03:25:21;13.93;;;8.67;;
19183;SDS011;9724;51.194;6.856;2023-05-10T03:27:47;15.67;;;8.63;;
19183;SDS011;9724;51.194;6.856;2023-05-10T03:30:14;12.97;;;8.30;;
19183;SDS011;9724;51.194;6.856;2023-05-10T03:32:43;14.57;;;8.93;;
19183;SDS011;9724;51.194;6.856;2023-05-10T03:35:09;14.63;;;9.43;;
19183;SDS011;9724;51.194;6.856;2023-05-10T03:37:35;13.27;;;8.63;;
19183;SDS011;9724;51.194;6.856;2023-05-10T03:40:01;12.17;;;8.40;;
19183;SDS011;9724;51.194;6.856;2023-05-10T03:42:28;12.97;;;8.33;;
19183;SDS011;9724;51.194;6.856;2023-05-10T03:44:55;11.13;;;8.40;;
19183;SDS011;9724;51.194;6.856;2023-05-10T03:47:22;15.93;;;8.50;;
19183;SDS011;9724;51.194;6.856;2023-05-10T03:49:49;14.90;;;8.80;;
19183;SDS011;9724;51.194;6.856;2023-05-10T03:52:15;12.87;;;8.37;;
19183;SDS011;9724;51.194;6.856;2023-05-10T03:54:41;15.50;;;8.07;;
19183;SDS011;9724;51.194;6.856;2023-05-10T03:57:07;15.50;;;8.40;;
19183;SDS011;9724;51.194;6.856;2023-05-10T03:59:34;14.60;;;7.87;;
19183;SDS011;9724;51.194;6.856;2023-05-10T04:02:01;15.90;;;8.47;;
19183;SDS011;9724;51.194;6.856;2023-05-10T04:04:27;17.27;;;8.80;;
19183;SDS011;9724;51.194;6.856;2023-05-10T04:06:54;13.30;;;8.83;;
19183;SDS011;9724;51.194;6.856;2023-05-10T04:09:20;7.30;;;4.63;;
19183;SDS011;9724;51.194;6.856;2023-05-10T04:11:47;16.20;;;9.80;;
19183;SDS011;9724;51.194;6.856;2023-05-10T04:14:13;17.23;;;9.73;;
19183;SDS011;9724;51.194;6.856;2023-05-10T04:16:39;13.90;;;8.87;;
19183;SDS011;9724;51.194;6.856;2023-05-10T04:19:05;12.87;;;8.17;;
19183;SDS011;9724;51.194;6.856;2023-05-10T04:21:32;13.77;;;9.37;;
19183;SDS011;9724;51.194;6.856;2023-05-10T04:23:59;14.60;;;9.03;;
19183;SDS011;9724;51.194;6.856;2023-05-10T04:26:25;14.37;;;9.50;;
19183;SDS011;9724;51.194;6.856;2023-05-10T04:28:51;15.07;;;9.77;;
19183;SDS011;9724;51.194;6.856;2023-05-10T04:31:17;16.20;;;10.37;;
19183;SDS011;9724;51.194;6.856;2023-05-10T04:33:44;18.43;;;10.80;;
19183;SDS011;9724;51.194;6.856;2023-05-10T04:36:10;20.80;;;11.50;;
19183;SDS011;9724;51.194;6.856;2023-05-10T04:38:36;18.70;;;11.50;;
19183;SDS011;9724;51.194;6.856;2023-05-10T04:41:04;25.30;;;12.00;;
19183;SDS011;9724;51.194;6.856;2023-05-10T04:43:31;25.53;;;13.03;;
19183;SDS011;9724;51.194;6.856;2023-05-10T04:45:57;20.13;;;12.20;;
19183;SDS011;9724;51.194;6.856;2023-05-10T04:48:23;24.57;;;14.07;;
19183;SDS011;9724;51.194;6.856;2023-05-10T04:50:49;29.00;;;14.27;;
19183;SDS011;9724;51.194;6.856;2023-05-10T04:53:16;30.77;;;14.47;;
19183;SDS011;9724;51.194;6.856;2023-05-10T04:55:42;26.73;;;14.53;;
19183;SDS011;9724;51.194;6.856;2023-05-10T04:58:09;27.33;;;14.93;;
19183;SDS011;9724;51.194;6.856;2023-05-10T05:00:35;28.40;;;14.67;;
19183;SDS011;9724;51.194;6.856;2023-05-10T05:03:01;26.10;;;15.03;;
19183;SDS011;9724;51.194;6.856;2023-05-10T05:05:28;34.03;;;16.60;;
19183;SDS011;9724;51.194;6.856;2023-05-10T05:07:54;27.27;;;16.40;;
19183;SDS011;9724;51.194;6.856;2023-05-10T05:10:20;31.83;;;16.07;;
19183;SDS011;9724;51.194;6.856;2023-05-10T05:12:46;31.73;;;15.97;;
19183;SDS011;9724;51.194;6.856;2023-05-10T05:15:13;30.50;;;16.87;;
19183;SDS011;9724;51.194;6.856;2023-05-10T05:17:41;34.00;;;16.53;;
19183;SDS011;9724;51.194;6.856;2023-05-10T05:20:08;36.07;;;17.13;;
19183;SDS011;9724;51.194;6.856;2023-05-10T05:22:35;33.47;;;17.33;;
19183;SDS011;9724;51.194;6.856;2023-05-10T05:25:02;35.63;;;17.50;;
19183;SDS011;9724;51.194;6.856;2023-05-10T05:27:29;37.90;;;18.97;;
19183;SDS011;9724;51.194;6.856;2023-05-10T05:29:55;35.10;;;19.07;;
19183;SDS011;9724;51.194;6.856;2023-05-10T05:32:23;32.13;;;17.37;;
19183;SDS011;9724;51.194;6.856;2023-05-10T05:34:49;30.17;;;17.47;;
19183;SDS011;9724;51.194;6.856;2023-05-10T05:37:16;34.63;;;18.10;;
19183;SDS011;9724;51.194;6.856;2023-05-10T05:39:43;34.50;;;17.70;;
19183;SDS011;9724;51.194;6.856;2023-05-10T05:42:10;36.60;;;16.60;;
19183;SDS011;9724;51.194;6.856;2023-05-10T05:44:36;26.90;;;16.97;;
19183;SDS011;9724;51.194;6.856;2023-05-10T05:47:03;29.10;;;16.10;;
19183;SDS011;9724;51.194;6.856;2023-05-10T05:49:30;30.97;;;15.53;;
19183;SDS011;9724;51.194;6.856;2023-05-10T05:51:58;27.53;;;15.30;;
19183;SDS011;9724;51.194;6.856;2023-05-10T05:54:24;29.03;;;15.13;;
19183;SDS011;9724;51.194;6.856;2023-05-10T05:56:50;28.13;;;14.83;;
19183;SDS011;9724;51.194;6.856;2023-05-10T05:59:19;26.93;;;15.23;;
19183;SDS011;9724;51.194;6.856;2023-05-10T06:01:45;26.93;;;14.13;;
19183;SDS011;9724;51.194;6.856;2023-05-10T06:04:11;29.17;;;14.43;;
19183;SDS011;9724;51.194;6.856;2023-05-10T06:06:39;29.30;;;14.30;;
19183;SDS011;9724;51.194;6.856;2023-05-10T06:09:05;24.47;;;13.50;;
19183;SDS011;9724;51.194;6.856;2023-05-10T06:11:31;29.23;;;15.00;;
19183;SDS011;9724;51.194;6.856;2023-05-10T06:13:57;30.90;;;14.53;;
19183;SDS011;9724;51.194;6.856;2023-05-10T06:16:23;24.63;;;14.00;;
19183;SDS011;9724;51.194;6.856;2023-05-10T06:18:50;28.00;;;15.47;;
19183;SDS011;9724;51.194;6.856;2023-05-10T06:21:16;29.63;;;14.53;;
19183;SDS011;9724;51.194;6.856;2023-05-10T06:23:43;26.40;;;14.63;;
19183;SDS011;9724;51.194;6.856;2023-05-10T06:26:09;29.93;;;14.83;;
19183;SDS011;9724;51.194;6.856;2023-05-10T06:28:36;23.63;;;13.63;;
19183;SDS011;9724;51.194;6.856;2023-05-10T06:31:03;26.67;;;13.40;;
19183;SDS011;9724;51.194;6.856;2023-05-10T06:33:30;29.67;;;13.87;;
19183;SDS011;9724;51.194;6.856;2023-05-10T06:35:56;25.27;;;13.50;;
19183;SDS011;9724;51.194;6.856;2023-05-10T06:38:23;31.47;;;13.97;;
19183;SDS011;9724;51.194;6.856;2023-05-10T06:40:49;26.37;;;13.53;;
19183;SDS011;9724;51.194;6.856;2023-05-10T06:43:16;23.37;;;13.00;;
19183;SDS011;9724;51.194;6.856;2023-05-10T06:45:42;31.13;;;13.17;;
19183;SDS011;9724;51.194;6.856;2023-05-10T06:48:08;23.80;;;12.20;;
19183;SDS011;9724;51.194;6.856;2023-05-10T06:50:34;24.63;;;13.40;;
19183;SDS011;9724;51.194;6.856;2023-05-10T06:53:01;27.60;;;13.03;;
19183;SDS011;9724;51.194;6.856;2023-05-10T06:55:27;24.50;;;13.50;;
19183;SDS011;9724;51.194;6.856;2023-05-10T06:57:55;28.10;;;12.97;;
19183;SDS011;9724;51.194;6.856;2023-05-10T07:00:21;24.03;;;12.47;;
19183;SDS011;9724;51.194;6.856;2023-05-10T07:02:48;28.53;;;14.50;;
19183;SDS011;9724;51.194;6.856;2023-05-10T07:05:14;29.70;;;14.17;;
19183;SDS011;9724;51.194;6.856;2023-05-10T07:07:41;34.67;;;14.67;;
19183;SDS011;9724;51.194;6.856;2023-05-10T07:10:08;35.87;;;15.07;;
19183;SDS011;9724;51.194;6.856;2023-05-10T07:12:35;34.30;;;15.70;;
19183;SDS011;9724;51.194;6.856;2023-05-10T07:15:02;37.70;;;14.87;;
19183;SDS011;9724;51.194;6.856;2023-05-10T07:17:29;35.33;;;15.13;;
19183;SDS011;9724;51.194;6.856;2023-05-10T07:19:56;38.87;;;15.17;;
19183;SDS011;9724;51.194;6.856;2023-05-10T07:22:23;29.53;;;14.37;;
19183;SDS011;9724;51.194;6.856;2023-05-10T07:24:49;28.50;;;13.70;;
19183;SDS011;9724;51.194;6.856;2023-05-10T07:27:16;32.13;;;13.93;;
19183;SDS011;9724;51.194;6.856;2023-05-10T07:29:42;29.77;;;14.70;;
19183;SDS011;9724;51.194;6.856;2023-05-10T07:32:09;33.77;;;14.23;;
19183;SDS011;9724;51.194;6.856;2023-05-10T07:34:36;30.47;;;13.50;;
19183;SDS011;9724;51.194;6.856;2023-05-10T07:37:02;29.47;;;14.17;;
19183;SDS011;9724;51.194;6.856;2023-05-10T07:39:28;26.27;;;12.20;;
19183;SDS011;9724;51.194;6.856;2023-05-10T07:41:55;29.93;;;13.00;;
19183;SDS011;9724;51.194;6.856;2023-05-10T07:44:22;26.33;;;12.40;;
19183;SDS011;9724;51.194;6.856;2023-05-10T07:46:48;28.90;;;12.40;;
19183;SDS011;9724;51.194;6.856;2023-05-10T07:49:15;27.10;;;13.33;;
19183;SDS011;9724;51.194;6.856;2023-05-10T07:51:42;27.00;;;12.93;;
19183;SDS011;9724;51.194;6.856;2023-05-10T07:54:08;24.83;;;12.10;;
19183;SDS011;9724;51.194;6.856;2023-05-10T07:56:34;20.37;;;11.57;;
19183;SDS011;9724;51.194;6.856;2023-05-10T07:59:02;22.33;;;12.27;;
19183;SDS011;9724;51.194;6.856;2023-05-10T08:01:30;21.27;;;11.27;;
19183;SDS011;9724;51.194;6.856;2023-05-10T08:03:57;18.10;;;10.93;;
19183;SDS011;9724;51.194;6.856;2023-05-10T08:06:24;23.07;;;11.60;;
19183;SDS011;9724;51.194;6.856;2023-05-10T08:08:51;28.47;;;14.07;;
19183;SDS011;9724;51.194;6.856;2023-05-10T08:11:19;33.43;;;15.47;;
19183;SDS011;9724;51.194;6.856;2023-05-10T08:13:46;40.83;;;17.40;;
19183;SDS011;9724;51.194;6.856;2023-05-10T08:16:13;38.40;;;18.40;;
19183;SDS011;9724;51.194;6.856;2023-05-10T08:18:40;42.80;;;17.77;;
19183;SDS011;9724;51.194;6.856;2023-05-10T08:21:06;39.13;;;18.53;;
19183;SDS011;9724;51.194;6.856;2023-05-10T08:23:33;38.00;;;18.87;;
19183;SDS011;9724;51.194;6.856;2023-05-10T08:25:59;40.27;;;20.27;;
19183;SDS011;9724;51.194;6.856;2023-05-10T08:28:26;41.97;;;20.37;;
19183;SDS011;9724;51.194;6.856;2023-05-10T08:30:52;46.70;;;22.23;;
19183;SDS011;9724;51.194;6.856;2023-05-10T08:33:18;48.33;;;22.70;;
19183;SDS011;9724;51.194;6.856;2023-05-10T08:35:45;52.10;;;23.50;;
19183;SDS011;9724;51.194;6.856;2023-05-10T08:38:11;43.80;;;22.33;;
19183;SDS011;9724;51.194;6.856;2023-05-10T08:40:39;48.70;;;22.03;;
19183;SDS011;9724;51.194;6.856;2023-05-10T08:43:08;48.20;;;23.43;;
19183;SDS011;9724;51.194;6.856;2023-05-10T08:45:36;48.40;;;22.40;;
19183;SDS011;9724;51.194;6.856;2023-05-10T08:48:04;42.90;;;21.17;;
19183;SDS011;9724;51.194;6.856;2023-05-10T08:50:31;52.13;;;23.53;;
19183;SDS011;9724;51.194;6.856;2023-05-10T08:52:59;51.63;;;21.93;;
19183;SDS011;9724;51.194;6.856;2023-05-10T08:55:26;46.47;;;22.03;;
19183;SDS011;9724;51.194;6.856;2023-05-10T08:57:53;45.80;;;21.17;;
19183;SDS011;9724;51.194;6.856;2023-05-10T09:00:20;43.93;;;20.83;;
19183;SDS011;9724;51.194;6.856;2023-05-10T09:02:49;46.30;;;21.43;;
19183;SDS011;9724;51.194;6.856;2023-05-10T09:05:15;44.77;;;21.60;;
19183;SDS011;9724;51.194;6.856;2023-05-10T09:07:43;45.00;;;21.20;;
19183;SDS011;9724;51.194;6.856;2023-05-10T09:10:10;46.33;;;19.90;;
19183;SDS011;9724;51.194;6.856;2023-05-10T09:12:36;45.70;;;21.13;;
19183;SDS011;9724;51.194;6.856;2023-05-10T09:15:04;46.37;;;21.67;;
19183;SDS011;9724;51.194;6.856;2023-05-10T09:17:31;42.00;;;21.47;;
19183;SDS011;9724;51.194;6.856;2023-05-10T09:19:58;46.80;;;20.97;;
19183;SDS011;9724;51.194;6.856;2023-05-10T09:22:24;50.60;;;21.30;;
19183;SDS011;9724;51.194;6.856;2023-05-10T09:25:02;46.83;;;21.13;;
19183;SDS011;9724;51.194;6.856;2023-05-10T09:27:30;40.10;;;20.33;;
19183;SDS011;9724;51.194;6.856;2023-05-10T09:29:56;42.07;;;19.53;;
19183;SDS011;9724;51.194;6.856;2023-05-10T09:32:25;38.33;;;18.83;;
19183;SDS011;9724;51.194;6.856;2023-05-10T09:35:05;34.67;;;18.63;;
19183;SDS011;9724;51.194;6.856;2023-05-10T09:37:35;41.27;;;18.90;;
19183;SDS011;9724;51.194;6.856;2023-05-10T09:40:04;34.67;;;17.87;;
19183;SDS011;9724;51.194;6.856;2023-05-10T09:42:31;31.17;;;16.53;;
19183;SDS011;9724;51.194;6.856;2023-05-10T09:44:59;34.57;;;17.53;;
19183;SDS011;9724;51.194;6.856;2023-05-10T09:47:27;27.57;;;15.97;;
19183;SDS011;9724;51.194;6.856;2023-05-10T09:49:54;30.47;;;16.47;;
19183;SDS011;9724;51.194;6.856;2023-05-10T09:52:23;24.30;;;14.67;;
19183;SDS011;9724;51.194;6.856;2023-05-10T09:54:52;27.73;;;14.93;;
19183;SDS011;9724;51.194;6.856;2023-05-10T09:57:20;29.93;;;14.40;;
19183;SDS011;9724;51.194;6.856;2023-05-10T09:59:46;25.47;;;15.07;;
19183;SDS011;9724;51.194;6.856;2023-05-10T10:02:13;29.93;;;14.03;;
19183;SDS011;9724;51.194;6.856;2023-05-10T10:04:40;22.80;;;13.93;;
19183;SDS011;9724;51.194;6.856;2023-05-10T10:07:08;23.83;;;13.83;;
19183;SDS011;9724;51.194;6.856;2023-05-10T10:09:35;21.10;;;13.53;;
19183;SDS011;9724;51.194;6.856;2023-05-10T10:12:01;25.77;;;13.50;;
19183;SDS011;9724;51.194;6.856;2023-05-10T10:14:29;26.70;;;14.40;;
19183;SDS011;9724;51.194;6.856;2023-05-10T10:16:55;23.70;;;14.13;;
19183;SDS011;9724;51.194;6.856;2023-05-10T10:19:34;23.70;;;13.97;;
19183;SDS011;9724;51.194;6.856;2023-05-10T10:22:01;23.77;;;12.57;;
19183;SDS011;9724;51.194;6.856;2023-05-10T10:24:28;27.50;;;13.10;;
19183;SDS011;9724;51.194;6.856;2023-05-10T10:26:55;25.33;;;12.67;;
19183;SDS011;9724;51.194;6.856;2023-05-10T10:29:30;21.30;;;12.27;;
19183;SDS011;9724;51.194;6.856;2023-05-10T10:32:02;20.73;;;12.73;;
19183;SDS011;9724;51.194;6.856;2023-05-10T10:34:32;21.17;;;12.27;;
19183;SDS011;9724;51.194;6.856;2023-05-10T10:36:59;25.63;;;13.93;;
19183;SDS011;9724;51.194;6.856;2023-05-10T10:39:30;30.03;;;13.63;;
19183;SDS011;9724;51.194;6.856;2023-05-10T10:41:57;24.17;;;14.33;;
19183;SDS011;9724;51.194;6.856;2023-05-10T10:44:34;27.07;;;14.03;;
19183;SDS011;9724;51.194;6.856;2023-05-10T10:50:01;21.60;;;12.53;;
19183;SDS011;9724;51.194;6.856;2023-05-10T10:52:31;24.17;;;13.23;;
19183;SDS011;9724;51.194;6.856;2023-05-10T10:54:59;25.23;;;12.63;;
19183;SDS011;9724;51.194;6.856;2023-05-10T10:57:27;24.57;;;11.87;;
19183;SDS011;9724;51.194;6.856;2023-05-10T11:02:56;16.83;;;11.03;;
19183;SDS011;9724;51.194;6.856;2023-05-10T11:05:34;22.23;;;11.17;;
19183;SDS011;9724;51.194;6.856;2023-05-10T11:10:54;49.03;;;13.80;;
19183;SDS011;9724;51.194;6.856;2023-05-10T11:13:30;22.47;;;11.80;;
19183;SDS011;9724;51.194;6.856;2023-05-10T11:15:58;25.50;;;12.47;;
19183;SDS011;9724;51.194;6.856;2023-05-10T11:18:26;20.43;;;12.23;;
19183;SDS011;9724;51.194;6.856;2023-05-10T11:20:56;23.87;;;13.03;;
19183;SDS011;9724;51.194;6.856;2023-05-10T11:23:28;22.43;;;12.37;;
19183;SDS011;9724;51.194;6.856;2023-05-10T11:25:55;23.33;;;12.77;;
19183;SDS011;9724;51.194;6.856;2023-05-10T11:28:24;21.97;;;12.90;;
19183;SDS011;9724;51.194;6.856;2023-05-10T11:30:59;22.80;;;13.00;;
19183;SDS011;9724;51.194;6.856;2023-05-10T11:33:42;27.80;;;13.90;;
19183;SDS011;9724;51.194;6.856;2023-05-10T11:36:15;22.97;;;13.77;;
19183;SDS011;9724;51.194;6.856;2023-05-10T11:38:44;25.27;;;13.90;;
19183;SDS011;9724;51.194;6.856;2023-05-10T11:41:11;25.30;;;14.03;;
19183;SDS011;9724;51.194;6.856;2023-05-10T11:43:38;26.43;;;14.50;;
19183;SDS011;9724;51.194;6.856;2023-05-10T11:46:04;23.90;;;14.53;;
19183;SDS011;9724;51.194;6.856;2023-05-10T11:48:31;25.93;;;13.73;;
19183;SDS011;9724;51.194;6.856;2023-05-10T11:50:58;25.40;;;14.17;;
19183;SDS011;9724;51.194;6.856;2023-05-10T11:53:25;24.70;;;14.50;;
19183;SDS011;9724;51.194;6.856;2023-05-10T11:55:53;25.07;;;14.50;;
19183;SDS011;9724;51.194;6.856;2023-05-10T11:58:20;21.63;;;12.90;;
19183;SDS011;9724;51.194;6.856;2023-05-10T12:00:48;23.03;;;13.50;;
19183;SDS011;9724;51.194;6.856;2023-05-10T12:03:14;23.47;;;13.30;;
19183;SDS011;9724;51.194;6.856;2023-05-10T12:05:41;25.47;;;14.03;;
19183;SDS011;9724;51.194;6.856;2023-05-10T12:08:11;19.67;;;13.53;;
19183;SDS011;9724;51.194;6.856;2023-05-10T12:10:39;21.93;;;12.70;;
19183;SDS011;9724;51.194;6.856;2023-05-10T12:13:06;20.27;;;13.17;;
19183;SDS011;9724;51.194;6.856;2023-05-10T12:15:37;19.70;;;12.80;;
19183;SDS011;9724;51.194;6.856;2023-05-10T12:18:03;20.70;;;12.50;;
19183;SDS011;9724;51.194;6.856;2023-05-10T12:20:31;22.10;;;14.33;;
19183;SDS011;9724;51.194;6.856;2023-05-10T12:22:58;26.03;;;14.03;;
19183;SDS011;9724;51.194;6.856;2023-05-10T12:25:29;22.93;;;14.00;;
19183;SDS011;9724;51.194;6.856;2023-05-10T12:27:58;24.53;;;13.93;;
19183;SDS011;9724;51.194;6.856;2023-05-10T12:30:27;22.33;;;14.17;;
19183;SDS011;9724;51.194;6.856;2023-05-10T12:32:58;21.10;;;13.37;;
19183;SDS011;9724;51.194;6.856;2023-05-10T12:35:25;23.00;;;13.60;;
19183;SDS011;9724;51.194;6.856;2023-05-10T12:37:52;26.53;;;13.70;;
19183;SDS011;9724;51.194;6.856;2023-05-10T12:40:18;31.40;;;15.27;;
19183;SDS011;9724;51.194;6.856;2023-05-10T12:42:44;27.10;;;15.57;;
19183;SDS011;9724;51.194;6.856;2023-05-10T12:45:11;24.43;;;14.83;;
19183;SDS011;9724;51.194;6.856;2023-05-10T12:47:39;27.97;;;15.97;;
19183;SDS011;9724;51.194;6.856;2023-05-10T12:50:09;24.97;;;15.83;;
19183;SDS011;9724;51.194;6.856;2023-05-10T12:52:36;28.90;;;18.30;;
19183;SDS011;9724;51.194;6.856;2023-05-10T12:55:02;31.73;;;19.60;;
19183;SDS011;9724;51.194;6.856;2023-05-10T12:57:29;35.27;;;19.93;;
19183;SDS011;9724;51.194;6.856;2023-05-10T12:59:56;34.23;;;20.37;;
19183;SDS011;9724;51.194;6.856;2023-05-10T13:02:22;33.40;;;20.83;;
19183;SDS011;9724;51.194;6.856;2023-05-10T13:04:49;36.17;;;20.37;;
19183;SDS011;9724;51.194;6.856;2023-05-10T13:07:16;31.33;;;19.47;;
19183;SDS011;9724;51.194;6.856;2023-05-10T13:09:42;34.90;;;20.67;;
19183;SDS011;9724;51.194;6.856;2023-05-10T13:12:09;31.37;;;18.93;;
19183;SDS011;9724;51.194;6.856;2023-05-10T13:14:35;35.57;;;20.23;;
19183;SDS011;9724;51.194;6.856;2023-05-10T13:17:02;30.73;;;18.80;;
19183;SDS011;9724;51.194;6.856;2023-05-10T13:19:28;32.20;;;19.40;;
19183;SDS011;9724;51.194;6.856;2023-05-10T13:21:55;31.73;;;19.93;;
19183;SDS011;9724;51.194;6.856;2023-05-10T13:24:21;30.67;;;19.63;;
19183;SDS011;9724;51.194;6.856;2023-05-10T13:26:47;32.03;;;18.30;;
19183;SDS011;9724;51.194;6.856;2023-05-10T13:29:14;33.93;;;20.30;;
19183;SDS011;9724;51.194;6.856;2023-05-10T13:31:51;33.27;;;19.90;;
19183;SDS011;9724;51.194;6.856;2023-05-10T13:34:22;34.03;;;20.37;;
19183;SDS011;9724;51.194;6.856;2023-05-10T13:36:49;34.70;;;21.13;;
19183;SDS011;9724;51.194;6.856;2023-05-10T13:39:18;33.60;;;20.73;;
19183;SDS011;9724;51.194;6.856;2023-05-10T13:41:47;34.77;;;19.90;;
19183;SDS011;9724;51.194;6.856;2023-05-10T13:44:17;32.83;;;20.67;;
19183;SDS011;9724;51.194;6.856;2023-05-10T13:46:43;31.50;;;20.10;;
19183;SDS011;9724;51.194;6.856;2023-05-10T13:49:10;31.70;;;19.43;;
19183;SDS011;9724;51.194;6.856;2023-05-10T13:51:36;33.60;;;18.97;;
19183;SDS011;9724;51.194;6.856;2023-05-10T13:54:05;29.77;;;18.33;;
19183;SDS011;9724;51.194;6.856;2023-05-10T13:56:33;31.97;;;18.67;;
19183;SDS011;9724;51.194;6.856;2023-05-10T13:59:00;30.87;;;17.97;;
19183;SDS011;9724;51.194;6.856;2023-05-10T14:01:26;30.47;;;18.13;;
19183;SDS011;9724;51.194;6.856;2023-05-10T14:03:52;35.47;;;18.83;;
19183;SDS011;9724;51.194;6.856;2023-05-10T14:06:19;28.23;;;17.37;;
19183;SDS011;9724;51.194;6.856;2023-05-10T14:08:45;27.80;;;16.10;;
19183;SDS011;9724;51.194;6.856;2023-05-10T14:11:12;29.00;;;16.47;;
19183;SDS011;9724;51.194;6.856;2023-05-10T14:13:39;21.70;;;14.10;;
19183;SDS011;9724;51.194;6.856;2023-05-10T14:16:06;17.60;;;11.23;;
19183;SDS011;9724;51.194;6.856;2023-05-10T14:18:33;17.90;;;11.40;;
19183;SDS011;9724;51.194;6.856;2023-05-10T14:20:59;17.47;;;10.40;;
19183;SDS011;9724;51.194;6.856;2023-05-10T14:23:25;15.50;;;10.30;;
19183;SDS011;9724;51.194;6.856;2023-05-10T14:25:53;16.30;;;9.47;;
19183;SDS011;9724;51.194;6.856;2023-05-10T14:28:20;13.97;;;9.70;;
19183;SDS011;9724;51.194;6.856;2023-05-10T14:30:48;17.33;;;10.00;;
19183;SDS011;9724;51.194;6.856;2023-05-10T14:33:16;16.80;;;10.07;;
19183;SDS011;9724;51.194;6.856;2023-05-10T14:35:42;17.10;;;11.10;;
19183;SDS011;9724;51.194;6.856;2023-05-10T14:38:08;18.00;;;10.73;;
19183;SDS011;9724;51.194;6.856;2023-05-10T14:40:36;18.23;;;10.90;;
19183;SDS011;9724;51.194;6.856;2023-05-10T14:43:02;18.13;;;10.87;;
19183;SDS011;9724;51.194;6.856;2023-05-10T14:45:28;19.00;;;11.13;;
19183;SDS011;9724;51.194;6.856;2023-05-10T14:47:56;18.87;;;10.87;;